Terminal Aerodrome Forecast
Issued by NWS

Home | Current Version | Previous Version | Text Only | Print | Product List | Glossary On
Versions: 1 2 3 4 5 6 7 8 9 10 11 12 13 14 15 16 17 18 19
000
FTUS43 KTOP 022300
TAFMHK
TAF
KMHK 022326Z 0300/0324 14013KT P6SM BKN035
     FM030300 18015G23KT 4SM -DZ BR OVC009
     FM031100 23013G21KT 6SM -DZ BR BKN020 OVC120
     FM031400 25015G25KT P6SM SCT030
     FM032000 35015G25KT P6SM BKN030=

USA.gov is the U.S. government's official web portal to all federal, state and local government web resources and services.